createdAt,value
2024-03-02T00:00:21.287Z,922.00
2024-03-02T00:01:21.422Z,917.00
2024-03-02T00:02:21.364Z,913.00
2024-03-02T00:03:21.499Z,911.00
2024-03-02T00:04:21.596Z,907.00
2024-03-02T00:05:21.572Z,907.00
2024-03-02T00:06:21.634Z,906.00
2024-03-02T00:07:21.650Z,906.00
2024-03-02T00:08:21.713Z,905.00
2024-03-02T00:09:21.866Z,904.00
2024-03-02T00:10:21.798Z,906.00
2024-03-02T00:11:21.892Z,905.00
2024-03-02T00:12:21.956Z,904.00
2024-03-02T00:13:21.966Z,904.00
2024-03-02T00:14:22.023Z,905.00
2024-03-02T00:15:22.112Z,906.00
2024-03-02T00:16:22.131Z,904.00
2024-03-02T00:17:22.217Z,902.00
2024-03-02T00:18:22.288Z,900.00
2024-03-02T00:19:22.310Z,899.00
2024-03-02T00:20:22.359Z,900.00
2024-03-02T00:21:22.488Z,902.00
2024-03-02T00:22:22.471Z,902.00
2024-03-02T00:23:22.528Z,900.00
2024-03-02T00:24:22.791Z,902.00
2024-03-02T00:25:22.658Z,902.00
2024-03-02T00:26:22.693Z,903.00
2024-03-02T00:27:22.793Z,898.00
2024-03-02T00:28:22.808Z,897.00
2024-03-02T00:29:22.872Z,896.00
2024-03-02T00:30:22.942Z,897.00
2024-03-02T00:31:22.973Z,896.00
2024-03-02T00:32:23.030Z,898.00
2024-03-02T00:33:23.244Z,902.00
2024-03-02T00:34:23.135Z,902.00
2024-03-02T00:35:23.190Z,903.00
2024-03-02T00:36:23.315Z,902.00
2024-03-02T00:37:23.318Z,905.00
2024-03-02T00:38:23.383Z,905.00
2024-03-02T00:39:23.511Z,907.00
2024-03-02T00:40:23.492Z,906.00
2024-03-02T00:41:23.559Z,905.00
2024-03-02T00:42:23.616Z,903.00
2024-03-02T00:43:23.655Z,902.00
2024-03-02T00:44:23.699Z,905.00
2024-03-02T00:45:23.797Z,905.00
2024-03-02T00:46:23.798Z,902.00
2024-03-02T00:47:23.861Z,900.00
2024-03-02T00:48:23.988Z,897.00
2024-03-02T00:49:23.954Z,895.00
2024-03-02T00:50:30.545Z,893.00
2024-03-02T00:51:25.076Z,889.00
2024-03-02T00:52:24.088Z,889.00
2024-03-02T00:53:24.108Z,892.00
2024-03-02T00:54:24.162Z,895.00
2024-03-02T00:55:24.200Z,892.00
2024-03-02T00:56:24.201Z,895.00
2024-03-02T00:57:24.285Z,894.00
2024-03-02T00:58:24.274Z,893.00
2024-03-02T00:59:24.311Z,893.00
2024-03-02T01:00:24.353Z,895.00
2024-03-02T01:01:24.503Z,895.00
2024-03-02T01:02:24.407Z,895.00
2024-03-02T01:03:24.460Z,896.00
2024-03-02T01:04:24.575Z,897.00
2024-03-02T01:05:24.525Z,895.00
2024-03-02T01:06:24.674Z,896.00
2024-03-02T01:07:24.586Z,899.00
2024-03-02T01:08:24.629Z,898.00
2024-03-02T01:09:24.687Z,898.00
2024-03-02T01:10:24.718Z,899.00
2024-03-02T01:11:24.983Z,899.00
2024-03-02T01:12:24.779Z,899.00
2024-03-02T01:13:24.822Z,898.00
2024-03-02T01:14:24.871Z,896.00
2024-03-02T01:15:24.955Z,895.00
2024-03-02T01:16:24.940Z,894.00
2024-03-02T01:17:24.985Z,894.00
2024-03-02T01:18:25.089Z,891.00
2024-03-02T01:19:25.158Z,890.00
2024-03-02T01:20:25.137Z,888.00
2024-03-02T01:21:25.232Z,891.00
2024-03-02T01:22:25.272Z,891.00
2024-03-02T01:23:25.308Z,890.00
2024-03-02T01:24:25.448Z,892.00
2024-03-02T01:25:25.445Z,894.00
2024-03-02T01:26:25.492Z,894.00
2024-03-02T01:27:25.594Z,894.00
2024-03-02T01:28:25.611Z,893.00
2024-03-02T01:29:25.683Z,891.00
2024-03-02T01:30:25.755Z,888.00
2024-03-02T01:31:25.795Z,888.00
2024-03-02T01:32:25.876Z,889.00
2024-03-02T01:33:25.939Z,887.00
2024-03-02T01:34:25.965Z,888.00
2024-03-02T01:35:26.024Z,890.00
2024-03-02T01:36:26.085Z,888.00
2024-03-02T01:37:26.126Z,886.00
2024-03-02T01:38:26.174Z,889.00
2024-03-02T01:39:26.260Z,886.00
2024-03-02T01:40:26.301Z,885.00
2024-03-02T01:41:26.352Z,885.00
2024-03-02T01:42:26.418Z,886.00
2024-03-02T01:43:26.460Z,884.00
2024-03-02T01:44:26.507Z,884.00
2024-03-02T01:45:26.549Z,883.00
2024-03-02T01:46:26.596Z,884.00
2024-03-02T01:47:26.701Z,884.00
2024-03-02T01:48:26.754Z,882.00
2024-03-02T01:49:26.777Z,878.00
2024-03-02T01:50:26.823Z,883.00
2024-03-02T01:51:26.915Z,878.00
2024-03-02T01:52:26.922Z,878.00
2024-03-02T01:53:26.968Z,878.00
2024-03-02T01:54:27.054Z,875.00
2024-03-02T01:55:27.081Z,876.00
2024-03-02T01:56:27.135Z,876.00
2024-03-02T01:57:27.237Z,876.00
2024-03-02T01:58:27.249Z,878.00
2024-03-02T01:59:27.317Z,879.00
2024-03-02T02:00:27.912Z,877.00
2024-03-02T02:01:27.460Z,875.00
2024-03-02T02:02:27.474Z,874.00
2024-03-02T02:03:27.538Z,873.00
2024-03-02T02:04:27.577Z,872.00
2024-03-02T02:05:27.636Z,873.00
2024-03-02T02:06:27.729Z,871.00
2024-03-02T02:07:27.731Z,869.00
2024-03-02T02:08:27.797Z,870.00
2024-03-02T02:09:27.884Z,869.00
2024-03-02T02:10:27.910Z,867.00
2024-03-02T02:11:27.978Z,866.00
2024-03-02T02:12:28.025Z,867.00
2024-03-02T02:13:28.056Z,866.00
2024-03-02T02:14:28.094Z,864.00
2024-03-02T02:15:28.319Z,863.00
2024-03-02T02:16:28.214Z,860.00
2024-03-02T02:17:28.297Z,862.00
2024-03-02T02:18:28.392Z,862.00
2024-03-02T02:19:28.382Z,862.00
2024-03-02T02:20:28.436Z,863.00
2024-03-02T02:21:28.650Z,865.00
2024-03-02T02:22:28.555Z,867.00
2024-03-02T02:23:28.621Z,864.00
2024-03-02T02:24:28.718Z,863.00
2024-03-02T02:25:28.733Z,864.00
2024-03-02T02:26:28.816Z,863.00
2024-03-02T02:27:28.869Z,858.00
2024-03-02T02:28:28.910Z,861.00
2024-03-02T02:29:28.963Z,862.00
2024-03-02T02:30:29.124Z,863.00
2024-03-02T02:31:29.062Z,863.00
2024-03-02T02:32:29.127Z,861.00
2024-03-02T02:33:29.255Z,855.00
2024-03-02T02:34:29.245Z,855.00
2024-03-02T02:35:29.324Z,859.00
2024-03-02T02:36:29.393Z,860.00
2024-03-02T02:37:29.436Z,858.00
2024-03-02T02:38:29.492Z,856.00
2024-03-02T02:39:29.574Z,852.00
2024-03-02T02:40:29.636Z,852.00
2024-03-02T02:41:29.646Z,849.00
2024-03-02T02:42:29.708Z,845.00
2024-03-02T02:43:29.765Z,843.00
2024-03-02T02:44:29.837Z,842.00
2024-03-02T02:45:29.970Z,844.00
2024-03-02T02:46:29.942Z,844.00
2024-03-02T02:47:30.044Z,846.00
2024-03-02T02:48:30.081Z,847.00
2024-03-02T02:49:30.125Z,848.00
2024-03-02T02:50:30.182Z,850.00
2024-03-02T02:51:30.282Z,852.00
2024-03-02T02:52:30.314Z,847.00
2024-03-02T02:53:30.372Z,848.00
2024-03-02T02:54:30.490Z,846.00
2024-03-02T02:55:30.508Z,845.00
2024-03-02T02:56:30.547Z,843.00
2024-03-02T02:57:30.615Z,844.00
2024-03-02T02:58:30.660Z,842.00
2024-03-02T02:59:30.730Z,844.00
2024-03-02T03:00:30.866Z,844.00
2024-03-02T03:01:30.948Z,847.00
2024-03-02T03:02:30.899Z,850.00
2024-03-02T03:03:30.981Z,851.00
2024-03-02T03:04:31.011Z,851.00
2024-03-02T03:05:31.082Z,852.00
2024-03-02T03:06:31.165Z,849.00
2024-03-02T03:07:31.209Z,848.00
2024-03-02T03:08:31.258Z,849.00
2024-03-02T03:09:31.352Z,848.00
2024-03-02T03:10:31.371Z,846.00
2024-03-02T03:11:31.453Z,844.00
2024-03-02T03:12:31.507Z,843.00
2024-03-02T03:13:31.553Z,840.00
2024-03-02T03:14:31.616Z,841.00
2024-03-02T03:15:31.689Z,837.00
2024-03-02T03:16:31.730Z,834.00
2024-03-02T03:17:31.788Z,831.00
2024-03-02T03:18:31.871Z,831.00
2024-03-02T03:19:31.891Z,834.00
2024-03-02T03:20:31.949Z,834.00
2024-03-02T03:21:32.051Z,834.00
2024-03-02T03:22:32.072Z,835.00
2024-03-02T03:23:32.129Z,836.00
2024-03-02T03:24:32.200Z,837.00
2024-03-02T03:25:32.249Z,838.00
2024-03-02T03:26:32.314Z,839.00
2024-03-02T03:27:32.400Z,840.00
2024-03-02T03:28:32.437Z,842.00
2024-03-02T03:29:32.489Z,843.00
2024-03-02T03:30:32.638Z,843.00
2024-03-02T03:31:32.598Z,841.00
2024-03-02T03:32:32.673Z,843.00
2024-03-02T03:33:32.750Z,845.00
2024-03-02T03:34:32.791Z,844.00
2024-03-02T03:35:32.825Z,842.00
2024-03-02T03:36:32.920Z,841.00
2024-03-02T03:37:32.941Z,838.00
2024-03-02T03:38:33.017Z,837.00
2024-03-02T03:39:33.167Z,838.00
2024-03-02T03:40:33.157Z,836.00
2024-03-02T03:41:33.196Z,838.00
2024-03-02T03:42:33.303Z,839.00
2024-03-02T03:43:33.306Z,839.00
2024-03-02T03:44:33.360Z,840.00
2024-03-02T03:45:33.467Z,841.00
2024-03-02T03:46:33.488Z,840.00
2024-03-02T03:47:33.572Z,838.00
2024-03-02T03:48:33.614Z,838.00
2024-03-02T03:49:33.665Z,836.00
2024-03-02T03:50:33.788Z,836.00
2024-03-02T03:51:33.878Z,838.00
2024-03-02T03:52:33.857Z,837.00
2024-03-02T03:53:33.928Z,836.00
2024-03-02T03:54:34.014Z,836.00
2024-03-02T03:55:34.019Z,838.00
2024-03-02T03:56:34.092Z,837.00
2024-03-02T03:57:34.213Z,838.00
2024-03-02T03:58:34.196Z,835.00
2024-03-02T03:59:34.308Z,837.00
2024-03-02T04:00:34.337Z,840.00
2024-03-02T04:01:34.400Z,840.00
2024-03-02T04:02:34.411Z,840.00
2024-03-02T04:03:34.497Z,836.00
2024-03-02T04:04:34.521Z,831.00
2024-03-02T04:05:34.614Z,827.00
2024-03-02T04:06:34.647Z,825.00
2024-03-02T04:07:34.678Z,824.00
2024-03-02T04:08:34.724Z,824.00
2024-03-02T04:09:34.811Z,823.00
2024-03-02T04:10:34.846Z,823.00
2024-03-02T04:11:34.999Z,822.00
2024-03-02T04:12:35.025Z,824.00
2024-03-02T04:13:35.121Z,824.00
2024-03-02T04:14:35.076Z,825.00
2024-03-02T04:15:35.185Z,828.00
2024-03-02T04:16:35.205Z,827.00
2024-03-02T04:17:35.382Z,827.00
2024-03-02T04:18:35.331Z,826.00
2024-03-02T04:19:35.391Z,825.00
2024-03-02T04:20:35.453Z,824.00
2024-03-02T04:21:35.543Z,823.00
2024-03-02T04:22:35.575Z,822.00
2024-03-02T04:23:35.625Z,821.00
2024-03-02T04:24:35.742Z,818.00
2024-03-02T04:25:35.736Z,817.00
2024-03-02T04:26:35.796Z,818.00
2024-03-02T04:27:35.908Z,820.00
2024-03-02T04:28:35.915Z,819.00
2024-03-02T04:29:35.967Z,818.00
2024-03-02T04:30:36.054Z,818.00
2024-03-02T04:31:36.103Z,816.00
2024-03-02T04:32:36.157Z,816.00
2024-03-02T04:33:36.215Z,817.00
2024-03-02T04:34:36.244Z,814.00
2024-03-02T04:35:36.293Z,814.00
2024-03-02T04:36:36.357Z,816.00
2024-03-02T04:37:36.408Z,815.00
2024-03-02T04:38:36.452Z,816.00
2024-03-02T04:39:36.559Z,814.00
2024-03-02T04:40:36.583Z,815.00
2024-03-02T04:41:36.643Z,816.00
2024-03-02T04:42:36.749Z,817.00
2024-03-02T04:43:36.758Z,816.00
2024-03-02T04:44:36.807Z,812.00
2024-03-02T04:45:36.886Z,809.00
2024-03-02T04:46:36.938Z,809.00
2024-03-02T04:47:37.009Z,809.00
2024-03-02T04:48:37.166Z,811.00
2024-03-02T04:49:37.217Z,809.00
2024-03-02T04:50:37.253Z,812.00
2024-03-02T04:51:37.266Z,813.00
2024-03-02T04:52:37.305Z,813.00
2024-03-02T04:53:37.365Z,814.00
2024-03-02T04:54:37.493Z,815.00
2024-03-02T04:55:37.478Z,813.00
2024-03-02T04:56:37.539Z,815.00
2024-03-02T04:57:37.643Z,818.00
2024-03-02T04:58:37.680Z,817.00
2024-03-02T04:59:45.029Z,842.00
2024-03-02T05:00:45.078Z,840.00
2024-03-02T05:01:45.040Z,833.00
2024-03-02T05:02:45.013Z,831.00
2024-03-02T05:03:45.080Z,825.00
2024-03-02T05:04:45.018Z,824.00
2024-03-02T05:05:45.014Z,827.00
2024-03-02T05:06:45.059Z,829.00
2024-03-02T05:07:45.038Z,828.00
2024-03-02T05:08:45.000Z,825.00
2024-03-02T05:09:45.046Z,823.00
2024-03-02T05:10:45.029Z,822.00
2024-03-02T05:11:44.996Z,820.00
2024-03-02T05:12:45.201Z,820.00
2024-03-02T05:13:45.008Z,823.00
2024-03-02T05:14:44.994Z,823.00
2024-03-02T05:15:45.032Z,820.00
2024-03-02T05:16:44.971Z,819.00
2024-03-02T05:17:45.057Z,818.00
2024-03-02T05:18:45.017Z,817.00
2024-03-02T05:19:44.975Z,819.00
2024-03-02T05:20:44.979Z,815.00
2024-03-02T05:21:45.036Z,814.00
2024-03-02T05:22:44.988Z,815.00
2024-03-02T05:23:44.995Z,815.00
2024-03-02T05:24:45.006Z,817.00
2024-03-02T05:25:45.001Z,819.00
2024-03-02T05:26:44.996Z,816.00
2024-03-02T05:27:45.103Z,812.00
2024-03-02T05:28:45.087Z,812.00
2024-03-02T05:29:44.997Z,811.00
2024-03-02T05:30:45.042Z,811.00
2024-03-02T05:31:44.991Z,811.00
2024-03-02T05:32:44.994Z,813.00
2024-03-02T05:33:45.192Z,814.00
2024-03-02T05:34:45.011Z,814.00
2024-03-02T05:35:44.996Z,811.00
2024-03-02T05:36:45.018Z,814.00
2024-03-02T05:37:45.003Z,814.00
2024-03-02T05:38:44.981Z,809.00
2024-03-02T05:39:45.062Z,807.00
2024-03-02T05:40:44.980Z,807.00
2024-03-02T05:41:44.977Z,808.00
2024-03-02T05:42:45.080Z,805.00
2024-03-02T05:43:45.007Z,806.00
2024-03-02T05:44:44.972Z,806.00
2024-03-02T05:45:45.016Z,804.00
2024-03-02T05:46:44.983Z,806.00
2024-03-02T05:47:45.034Z,805.00
2024-03-02T05:48:45.042Z,804.00
2024-03-02T05:49:44.985Z,802.00
2024-03-02T05:50:44.980Z,801.00
2024-03-02T05:51:45.023Z,801.00
2024-03-02T05:52:44.984Z,801.00
2024-03-02T05:53:44.980Z,800.00
2024-03-02T05:54:45.008Z,801.00
2024-03-02T05:55:44.991Z,802.00
2024-03-02T05:56:45.025Z,800.00
2024-03-02T05:57:45.163Z,803.00
2024-03-02T05:58:45.136Z,802.00
2024-03-02T05:59:45.160Z,803.00
2024-03-02T06:00:45.303Z,802.00
2024-03-02T06:01:45.392Z,801.00
2024-03-02T06:02:45.307Z,802.00
2024-03-02T06:03:45.356Z,803.00
2024-03-02T06:04:45.409Z,805.00
2024-03-02T06:05:45.428Z,807.00
2024-03-02T06:06:45.523Z,809.00
2024-03-02T06:07:45.522Z,810.00
2024-03-02T06:08:45.571Z,810.00
2024-03-02T06:09:45.682Z,808.00
2024-03-02T06:10:45.697Z,805.00
2024-03-02T06:11:45.702Z,802.00
2024-03-02T06:12:45.817Z,803.00
2024-03-02T06:13:45.790Z,803.00
2024-03-02T06:14:45.832Z,804.00
2024-03-02T06:15:45.972Z,800.00
2024-03-02T06:16:45.918Z,799.00
2024-03-02T06:17:45.985Z,796.00
2024-03-02T06:18:46.039Z,796.00
2024-03-02T06:19:46.040Z,798.00
2024-03-02T06:20:46.105Z,798.00
2024-03-02T06:21:46.160Z,797.00
2024-03-02T06:22:46.161Z,792.00
2024-03-02T06:23:46.212Z,791.00
2024-03-02T06:24:46.320Z,792.00
2024-03-02T06:25:46.314Z,793.00
2024-03-02T06:26:46.367Z,793.00
2024-03-02T06:27:46.473Z,792.00
2024-03-02T06:28:46.546Z,790.00
2024-03-02T06:29:46.503Z,796.00
2024-03-02T06:30:46.589Z,795.00
2024-03-02T06:31:46.594Z,797.00
2024-03-02T06:32:46.679Z,794.00
2024-03-02T06:33:46.768Z,792.00
2024-03-02T06:34:46.711Z,792.00
2024-03-02T06:35:46.752Z,792.00
2024-03-02T06:36:46.842Z,792.00
2024-03-02T06:37:46.858Z,791.00
2024-03-02T06:38:46.954Z,791.00
2024-03-02T06:39:46.963Z,790.00
2024-03-02T06:40:46.990Z,791.00
2024-03-02T06:41:47.005Z,793.00
2024-03-02T06:42:47.076Z,794.00
2024-03-02T06:43:47.101Z,791.00
2024-03-02T06:44:47.147Z,786.00
2024-03-02T06:45:47.210Z,786.00
2024-03-02T06:46:47.247Z,787.00
2024-03-02T06:47:47.348Z,787.00
2024-03-02T06:48:47.356Z,783.00
2024-03-02T06:49:47.353Z,783.00
2024-03-02T06:50:47.408Z,785.00
2024-03-02T06:51:47.455Z,787.00
2024-03-02T06:52:47.499Z,786.00
2024-03-02T06:53:47.540Z,787.00
2024-03-02T06:54:47.604Z,787.00
2024-03-02T06:55:47.601Z,785.00
2024-03-02T06:56:47.637Z,783.00
2024-03-02T06:57:47.848Z,782.00
2024-03-02T06:58:47.710Z,782.00
2024-03-02T06:59:47.744Z,783.00
2024-03-02T07:00:47.819Z,783.00
2024-03-02T07:01:47.960Z,783.00
2024-03-02T07:02:47.852Z,783.00
2024-03-02T07:03:47.942Z,784.00
2024-03-02T07:04:47.941Z,784.00
2024-03-02T07:05:47.977Z,782.00
2024-03-02T07:06:48.027Z,781.00
2024-03-02T07:07:48.081Z,779.00
2024-03-02T07:08:48.125Z,777.00
2024-03-02T07:09:48.177Z,778.00
2024-03-02T07:10:48.234Z,779.00
2024-03-02T07:11:52.019Z,779.00
2024-03-02T07:12:48.251Z,780.00
2024-03-02T07:13:48.225Z,780.00
2024-03-02T07:14:48.242Z,777.00
2024-03-02T07:15:48.247Z,776.00
2024-03-02T07:16:48.225Z,775.00
2024-03-02T07:17:48.224Z,776.00
2024-03-02T07:18:48.321Z,774.00
2024-03-02T07:19:48.244Z,770.00
2024-03-02T07:20:48.234Z,770.00
2024-03-02T07:21:48.263Z,770.00
2024-03-02T07:22:48.222Z,769.00
2024-03-02T07:23:48.245Z,769.00
2024-03-02T07:24:48.252Z,771.00
2024-03-02T07:27:48.239Z,770.00
2024-03-02T07:28:48.201Z,771.00
2024-03-02T07:29:48.189Z,769.00
2024-03-02T07:30:48.210Z,768.00
2024-03-02T07:31:48.179Z,770.00
2024-03-02T07:32:48.192Z,771.00
2024-03-02T07:33:48.307Z,770.00
2024-03-02T07:34:48.159Z,773.00
2024-03-02T07:35:48.166Z,773.00
2024-03-02T07:36:48.165Z,775.00
2024-03-02T07:37:48.148Z,772.00
2024-03-02T07:38:48.145Z,769.00
2024-03-02T07:39:48.223Z,769.00
2024-03-02T07:40:48.140Z,769.00
2024-03-02T07:41:48.128Z,769.00
2024-03-02T07:42:48.183Z,768.00
2024-03-02T07:43:48.124Z,766.00
2024-03-02T07:44:48.127Z,765.00
2024-03-02T07:45:48.144Z,766.00
2024-03-02T07:46:48.121Z,766.00
2024-03-02T07:47:48.149Z,767.00
2024-03-02T07:48:48.129Z,769.00
2024-03-02T07:49:48.102Z,768.00
2024-03-02T07:50:48.128Z,769.00
2024-03-02T07:51:48.163Z,768.00
2024-03-02T07:52:48.119Z,769.00
2024-03-02T07:53:48.248Z,769.00
2024-03-02T07:54:48.131Z,768.00
2024-03-02T07:55:48.097Z,768.00
2024-03-02T07:56:48.095Z,767.00
2024-03-02T07:57:48.108Z,768.00
2024-03-02T07:58:48.072Z,766.00
2024-03-02T07:59:48.151Z,764.00
2024-03-02T08:00:48.163Z,762.00
2024-03-02T08:01:48.078Z,765.00
2024-03-02T08:02:48.055Z,763.00
2024-03-02T08:03:48.077Z,762.00
2024-03-02T08:04:48.034Z,762.00
2024-03-02T08:05:48.031Z,762.00
2024-03-02T08:06:48.037Z,760.00
2024-03-02T08:07:48.003Z,759.00
2024-03-02T08:08:48.001Z,761.00
2024-03-02T08:09:48.030Z,760.00
2024-03-02T08:10:48.007Z,762.00
2024-03-02T08:11:47.977Z,764.00
2024-03-02T08:12:47.949Z,760.00
2024-03-02T08:13:47.946Z,758.00
2024-03-02T08:14:47.944Z,758.00
2024-03-02T08:15:47.975Z,758.00
2024-03-02T08:16:47.935Z,760.00
2024-03-02T08:17:47.952Z,761.00
2024-03-02T08:18:48.058Z,763.00
2024-03-02T08:19:47.910Z,763.00
2024-03-02T08:20:47.898Z,762.00
2024-03-02T08:21:47.955Z,761.00
2024-03-02T08:22:47.882Z,761.00
2024-03-02T08:23:47.895Z,763.00
2024-03-02T08:24:47.938Z,762.00
2024-03-02T08:25:47.866Z,762.00
2024-03-02T08:26:47.854Z,762.00
2024-03-02T08:27:48.255Z,762.00
2024-03-02T08:28:47.836Z,761.00
2024-03-02T08:29:47.822Z,763.00
2024-03-02T08:30:47.843Z,763.00
2024-03-02T08:31:47.809Z,767.00
2024-03-02T08:32:47.873Z,769.00
2024-03-02T08:33:47.877Z,770.00
2024-03-02T08:34:47.832Z,768.00
2024-03-02T08:35:47.837Z,768.00
2024-03-02T08:36:47.891Z,767.00
2024-03-02T08:37:47.856Z,766.00
2024-03-02T08:38:47.861Z,768.00
2024-03-02T08:39:47.915Z,768.00
2024-03-02T08:40:47.895Z,768.00
2024-03-02T08:41:47.904Z,768.00
2024-03-02T08:42:47.944Z,768.00
2024-03-02T08:43:47.923Z,771.00
2024-03-02T08:44:47.946Z,769.00
2024-03-02T08:45:47.971Z,770.00
2024-03-02T08:46:47.980Z,769.00
2024-03-02T08:47:48.001Z,770.00
2024-03-02T08:48:47.995Z,767.00
2024-03-02T08:49:48.012Z,769.00
2024-03-02T08:50:48.009Z,768.00
2024-03-02T08:51:48.023Z,769.00
2024-03-02T08:52:48.024Z,766.00
2024-03-02T08:53:48.034Z,765.00
2024-03-02T08:54:48.044Z,760.00
2024-03-02T08:55:48.068Z,760.00
2024-03-02T08:56:48.047Z,757.00
2024-03-02T08:57:48.064Z,758.00
2024-03-02T08:58:48.050Z,759.00
2024-03-02T08:59:48.051Z,761.00
2024-03-02T09:00:48.122Z,761.00
2024-03-02T09:01:48.074Z,761.00
2024-03-02T09:02:48.063Z,761.00
2024-03-02T09:03:48.092Z,759.00
2024-03-02T09:04:48.053Z,761.00
2024-03-02T09:05:48.068Z,761.00
2024-03-02T09:06:48.088Z,759.00
2024-03-02T09:07:48.082Z,759.00
2024-03-02T09:08:48.061Z,758.00
2024-03-02T09:09:48.079Z,756.00
2024-03-02T09:10:48.068Z,756.00
2024-03-02T09:11:48.158Z,754.00
2024-03-02T09:12:48.127Z,753.00
2024-03-02T09:13:48.075Z,754.00
2024-03-02T09:14:48.080Z,756.00
2024-03-02T09:15:48.116Z,756.00
2024-03-02T09:16:48.098Z,757.00
2024-03-02T09:17:48.144Z,757.00
2024-03-02T09:18:48.180Z,758.00
2024-03-02T09:19:48.119Z,757.00
2024-03-02T09:20:48.139Z,756.00
2024-03-02T09:21:48.241Z,755.00
2024-03-02T09:22:48.166Z,753.00
2024-03-02T09:23:48.150Z,752.00
2024-03-02T09:24:48.145Z,749.00
2024-03-02T09:25:48.161Z,751.00
2024-03-02T09:26:48.152Z,753.00
2024-03-02T09:27:48.207Z,751.00
2024-03-02T09:28:48.188Z,751.00
2024-03-02T09:29:48.180Z,750.00
2024-03-02T09:30:48.213Z,748.00
2024-03-02T09:31:48.184Z,746.00
2024-03-02T09:32:50.549Z,744.00
2024-03-02T09:33:48.458Z,745.00
2024-03-02T09:34:48.401Z,744.00
2024-03-02T09:35:48.433Z,744.00
2024-03-02T09:36:48.436Z,740.00
2024-03-02T09:37:48.420Z,740.00
2024-03-02T09:38:48.421Z,740.00
2024-03-02T09:39:48.449Z,742.00
2024-03-02T09:40:48.439Z,745.00
2024-03-02T09:41:48.451Z,745.00
2024-03-02T09:42:48.506Z,747.00
2024-03-02T09:43:48.465Z,748.00
2024-03-02T09:44:48.461Z,747.00
2024-03-02T09:45:48.480Z,748.00
2024-03-02T09:46:48.474Z,747.00
2024-03-02T09:47:48.475Z,748.00
2024-03-02T09:48:48.532Z,750.00
2024-03-02T09:49:48.465Z,751.00
2024-03-02T09:50:48.479Z,754.00
2024-03-02T09:51:48.496Z,752.00
2024-03-02T09:52:48.463Z,752.00
2024-03-02T09:53:48.459Z,749.00
2024-03-02T09:54:48.503Z,748.00
2024-03-02T09:55:48.494Z,748.00
2024-03-02T09:56:48.524Z,750.00
2024-03-02T09:57:48.554Z,751.00
2024-03-02T09:58:48.567Z,749.00
2024-03-02T09:59:48.612Z,747.00
2024-03-02T10:00:48.699Z,747.00
2024-03-02T10:01:48.702Z,745.00
2024-03-02T10:02:49.255Z,745.00
2024-03-02T10:03:48.798Z,745.00
2024-03-02T10:04:48.829Z,746.00
2024-03-02T10:05:48.914Z,744.00
2024-03-02T10:06:48.958Z,745.00
2024-03-02T10:07:48.980Z,746.00
2024-03-02T10:08:49.042Z,747.00
2024-03-02T10:09:49.208Z,746.00
2024-03-02T10:10:49.196Z,745.00
2024-03-02T10:11:49.201Z,744.00
2024-03-02T10:12:49.312Z,747.00
2024-03-02T10:13:49.310Z,749.00
2024-03-02T10:14:49.366Z,749.00
2024-03-02T10:15:49.475Z,747.00
2024-03-02T10:16:49.473Z,745.00
2024-03-02T10:17:49.546Z,747.00
2024-03-02T10:18:49.640Z,745.00
2024-03-02T10:19:49.653Z,743.00
2024-03-02T10:20:49.704Z,743.00
2024-03-02T10:21:49.850Z,744.00
2024-03-02T10:22:49.823Z,744.00
2024-03-02T10:23:49.890Z,746.00
2024-03-02T10:24:53.647Z,746.00
2024-03-02T10:25:55.337Z,747.00
2024-03-02T10:26:51.026Z,747.00
2024-03-02T10:27:49.981Z,750.00
2024-03-02T10:28:49.937Z,751.00
2024-03-02T10:29:49.927Z,752.00
2024-03-02T10:30:50.152Z,751.00
2024-03-02T10:31:49.914Z,749.00
2024-03-02T10:32:49.943Z,751.00
2024-03-02T10:33:49.925Z,751.00
2024-03-02T10:34:49.915Z,748.00
2024-03-02T10:35:49.913Z,752.00
2024-03-02T10:36:49.959Z,752.00
2024-03-02T10:37:49.879Z,751.00
2024-03-02T10:38:49.877Z,747.00
2024-03-02T10:39:49.927Z,746.00
2024-03-02T10:40:49.915Z,745.00
2024-03-02T10:41:49.843Z,745.00
2024-03-02T10:42:49.845Z,747.00
2024-03-02T10:43:49.800Z,743.00
2024-03-02T10:44:49.800Z,741.00
2024-03-02T10:45:49.848Z,742.00
2024-03-02T10:46:49.762Z,742.00
2024-03-02T10:47:49.903Z,742.00
2024-03-02T10:48:49.804Z,741.00
2024-03-02T10:49:49.746Z,743.00
2024-03-02T10:50:49.732Z,742.00
2024-03-02T10:51:49.800Z,742.00
2024-03-02T10:52:49.713Z,742.00
2024-03-02T10:53:49.693Z,744.00
2024-03-02T10:54:49.837Z,742.00
2024-03-02T10:55:49.717Z,741.00
2024-03-02T10:56:49.712Z,742.00
2024-03-02T10:57:49.770Z,745.00
2024-03-02T10:58:49.776Z,745.00
2024-03-02T10:59:49.769Z,740.00
2024-03-02T11:00:49.837Z,740.00
2024-03-02T11:01:49.884Z,738.00
2024-03-02T11:02:49.844Z,737.00
2024-03-02T11:03:49.892Z,733.00
2024-03-02T11:04:49.877Z,732.00
2024-03-02T11:05:49.902Z,735.00
2024-03-02T11:06:49.990Z,733.00
2024-03-02T11:07:49.932Z,733.00
2024-03-02T11:08:49.961Z,735.00
2024-03-02T11:09:50.031Z,735.00
2024-03-02T11:10:50.040Z,736.00
2024-03-02T11:11:50.021Z,738.00
2024-03-02T11:12:50.084Z,741.00
2024-03-02T11:13:50.067Z,741.00
2024-03-02T11:14:50.094Z,739.00
2024-03-02T11:15:50.123Z,737.00
2024-03-02T11:16:50.124Z,736.00
2024-03-02T11:17:50.133Z,735.00
2024-03-02T11:18:50.198Z,735.00
2024-03-02T11:19:50.172Z,734.00
2024-03-02T11:20:50.228Z,734.00
2024-03-02T11:21:50.228Z,732.00
2024-03-02T11:22:50.223Z,736.00
2024-03-02T11:23:50.245Z,735.00
2024-03-02T11:24:50.345Z,735.00
2024-03-02T11:25:50.294Z,734.00
2024-03-02T11:26:50.313Z,733.00
2024-03-02T11:27:50.356Z,732.00
2024-03-02T11:28:50.353Z,733.00
2024-03-02T11:29:50.370Z,733.00
2024-03-02T11:30:50.450Z,733.00
2024-03-02T11:31:50.415Z,734.00
2024-03-02T11:32:50.466Z,734.00
2024-03-02T11:33:50.519Z,732.00
2024-03-02T11:34:50.502Z,728.00
2024-03-02T11:35:50.526Z,728.00
2024-03-02T11:36:50.572Z,727.00
2024-03-02T11:37:50.532Z,727.00
2024-03-02T11:38:50.592Z,723.00
2024-03-02T11:39:50.634Z,724.00
2024-03-02T11:40:50.579Z,726.00
2024-03-02T11:41:52.613Z,728.00
2024-03-02T11:42:50.674Z,730.00
2024-03-02T11:43:50.578Z,730.00
2024-03-02T11:44:50.625Z,730.00
2024-03-02T11:45:50.576Z,732.00
2024-03-02T11:46:50.544Z,733.00
2024-03-02T11:47:50.551Z,732.00
2024-03-02T11:48:50.526Z,731.00
2024-03-02T11:49:50.518Z,728.00
2024-03-02T11:50:50.489Z,727.00
2024-03-02T11:51:50.523Z,722.00
2024-03-02T11:52:50.489Z,721.00
2024-03-02T11:53:50.479Z,720.00
2024-03-02T11:54:50.627Z,719.00
2024-03-02T11:55:50.559Z,720.00
2024-03-02T11:56:50.452Z,723.00
2024-03-02T11:57:50.441Z,726.00
2024-03-02T11:58:50.496Z,726.00
2024-03-02T11:59:50.420Z,726.00
2024-03-02T12:00:50.478Z,727.00
2024-03-02T12:01:50.443Z,726.00
2024-03-02T12:02:50.377Z,725.00
2024-03-02T12:03:50.386Z,723.00
2024-03-02T12:04:50.386Z,723.00
2024-03-02T12:05:50.356Z,723.00
2024-03-02T12:06:50.377Z,725.00
2024-03-02T12:07:50.305Z,727.00
2024-03-02T12:08:50.289Z,726.00
2024-03-02T12:09:50.315Z,724.00
2024-03-02T12:10:50.277Z,723.00
2024-03-02T12:11:50.274Z,723.00
2024-03-02T12:12:50.332Z,722.00
2024-03-02T12:13:50.226Z,721.00
2024-03-02T12:14:50.209Z,722.00
2024-03-02T12:15:50.225Z,721.00
2024-03-02T12:16:50.197Z,724.00
2024-03-02T12:17:50.222Z,725.00
2024-03-02T12:18:50.242Z,726.00
2024-03-02T12:19:50.177Z,723.00
2024-03-02T12:20:50.164Z,724.00
2024-03-02T12:21:50.185Z,725.00
2024-03-02T12:22:50.138Z,723.00
2024-03-02T12:23:50.128Z,724.00
2024-03-02T12:24:50.204Z,724.00
2024-03-02T12:25:50.104Z,725.00
2024-03-02T12:26:50.094Z,726.00
2024-03-02T12:27:50.156Z,723.00
2024-03-02T12:28:50.066Z,724.00
2024-03-02T12:29:50.065Z,724.00
2024-03-02T12:30:50.082Z,725.00